createdAt,value
2022-12-28T00:01:33.791Z,63.33
2022-12-28T00:04:01.898Z,65.18
2022-12-28T00:06:28.395Z,65.57
2022-12-28T00:08:56.479Z,65.85
2022-12-28T00:11:27.691Z,65.70
2022-12-28T00:13:59.300Z,65.77
2022-12-28T00:16:27.662Z,65.38
2022-12-28T00:18:55.559Z,65.88
2022-12-28T00:21:22.439Z,65.92
2022-12-28T00:23:53.624Z,65.10
2022-12-28T00:26:24.067Z,65.74
2022-12-28T00:28:50.466Z,65.84
2022-12-28T00:31:17.068Z,66.29
2022-12-28T00:33:43.810Z,65.79
2022-12-28T00:36:12.824Z,65.53
2022-12-28T00:38:39.930Z,65.88
2022-12-28T00:41:07.473Z,65.84
2022-12-28T00:43:34.067Z,65.46
2022-12-28T00:46:00.503Z,65.92
2022-12-28T00:48:27.099Z,65.76
2022-12-28T00:51:00.515Z,65.92
2022-12-28T00:53:26.833Z,66.00
2022-12-28T00:55:53.148Z,65.77
2022-12-28T00:58:19.426Z,65.65
2022-12-28T01:00:45.769Z,65.88
2022-12-28T01:03:12.109Z,65.73
2022-12-28T01:05:39.712Z,65.99
2022-12-28T01:08:06.035Z,65.60
2022-12-28T01:10:32.345Z,66.29
2022-12-28T01:12:58.658Z,66.35
2022-12-28T01:15:25.041Z,66.49
2022-12-28T01:17:51.352Z,66.89
2022-12-28T01:20:17.789Z,67.15
2022-12-28T01:22:44.118Z,67.29
2022-12-28T01:25:10.539Z,67.70
2022-12-28T01:27:36.870Z,67.47
2022-12-28T01:30:03.740Z,67.85
2022-12-28T01:32:30.048Z,68.33
2022-12-28T01:34:56.429Z,68.09
2022-12-28T01:37:22.854Z,68.74
2022-12-28T01:39:49.184Z,68.78
2022-12-28T01:42:17.973Z,68.91
2022-12-28T01:44:46.905Z,68.98
2022-12-28T01:47:35.349Z,69.10
2022-12-28T01:50:09.861Z,69.11
2022-12-28T01:52:38.092Z,69.11
2022-12-28T01:55:07.553Z,69.30
2022-12-28T01:57:39.314Z,69.05
2022-12-28T02:00:10.844Z,69.27
2022-12-28T02:02:38.421Z,69.51
2022-12-28T02:05:05.761Z,69.34
2022-12-28T02:07:42.491Z,69.65
2022-12-28T02:10:42.941Z,69.79
2022-12-28T02:12:57.630Z,69.86
2022-12-28T02:15:24.179Z,69.96
2022-12-28T02:17:50.957Z,69.87
2022-12-28T02:20:18.172Z,70.14
2022-12-28T02:22:59.450Z,71.00
2022-12-28T02:25:53.287Z,70.86
2022-12-28T02:28:38.419Z,70.57
2022-12-28T02:31:32.336Z,71.18
2022-12-28T02:34:16.436Z,70.85
2022-12-28T02:36:50.764Z,70.98
2022-12-28T02:39:25.285Z,71.00
2022-12-28T02:41:53.072Z,71.03
2022-12-28T02:44:39.686Z,71.21
2022-12-28T02:47:32.844Z,71.32
2022-12-28T02:50:09.247Z,71.27
2022-12-28T02:52:51.605Z,71.66
2022-12-28T02:56:08.220Z,71.88
2022-12-28T02:58:59.041Z,71.73
2022-12-28T03:02:06.775Z,71.77
2022-12-28T03:04:54.557Z,71.70
2022-12-28T03:07:48.734Z,71.64
2022-12-28T03:10:23.432Z,71.74
2022-12-28T03:13:27.437Z,71.68
2022-12-28T03:15:57.737Z,71.69
2022-12-28T03:18:45.228Z,71.82
2022-12-28T03:21:30.213Z,71.84
2022-12-28T03:24:15.563Z,71.52
2022-12-28T03:27:06.582Z,71.50
2022-12-28T03:29:59.353Z,71.30
2022-12-28T03:32:26.116Z,71.62
2022-12-28T03:34:52.679Z,71.62
2022-12-28T03:37:35.135Z,70.94
2022-12-28T03:40:37.028Z,71.33
2022-12-28T03:43:30.086Z,71.23
2022-12-28T03:46:17.853Z,71.32
2022-12-28T03:48:45.284Z,71.53
2022-12-28T03:51:14.702Z,71.18
2022-12-28T03:53:44.110Z,71.34
2022-12-28T03:56:27.903Z,71.09
2022-12-28T03:58:55.411Z,71.18
2022-12-28T04:01:22.179Z,71.63
2022-12-28T04:03:48.815Z,71.55
2022-12-28T04:06:17.832Z,71.59
2022-12-28T04:08:45.256Z,71.79
2022-12-28T04:11:12.501Z,71.93
2022-12-28T04:13:39.181Z,72.00
2022-12-28T04:16:12.647Z,71.83
2022-12-28T04:18:39.951Z,72.16
2022-12-28T04:21:06.430Z,72.05
2022-12-28T04:23:33.109Z,72.12
2022-12-28T04:26:02.261Z,72.19
2022-12-28T04:28:29.283Z,72.34
2022-12-28T04:30:56.598Z,72.27
2022-12-28T04:33:23.637Z,72.42
2022-12-28T04:35:50.863Z,72.59
2022-12-28T04:38:18.017Z,72.76
2022-12-28T04:40:44.817Z,73.00
2022-12-28T04:43:11.694Z,73.05
2022-12-28T04:45:38.172Z,73.19
2022-12-28T04:48:05.112Z,73.32
2022-12-28T04:50:31.581Z,73.47
2022-12-28T04:52:59.196Z,73.71
2022-12-28T04:55:33.123Z,74.03
2022-12-28T04:58:00.573Z,74.35
2022-12-28T05:00:27.183Z,74.50
2022-12-28T05:02:53.919Z,74.48
2022-12-28T05:05:20.495Z,74.94
2022-12-28T05:07:46.952Z,74.77
2022-12-28T05:10:13.432Z,75.52
2022-12-28T05:12:40.035Z,75.65
2022-12-28T05:15:07.365Z,75.62
2022-12-28T05:17:34.015Z,75.98
2022-12-28T05:20:00.786Z,75.79
2022-12-28T05:22:27.221Z,76.06
2022-12-28T05:24:53.727Z,76.23
2022-12-28T05:27:20.324Z,75.81
2022-12-28T05:29:47.228Z,76.09
2022-12-28T05:32:13.754Z,76.34
2022-12-28T05:34:40.417Z,76.62
2022-12-28T05:37:06.928Z,76.58
2022-12-28T05:39:33.566Z,76.40
2022-12-28T05:42:00.818Z,76.05
2022-12-28T05:44:27.539Z,76.30
2022-12-28T05:46:54.188Z,76.59
2022-12-28T05:49:20.952Z,76.63
2022-12-28T05:51:51.913Z,77.01
2022-12-28T05:54:18.879Z,76.86
2022-12-28T05:56:45.699Z,76.81
2022-12-28T05:59:13.584Z,76.98
2022-12-28T06:01:43.244Z,76.85
2022-12-28T06:04:21.101Z,77.43
2022-12-28T06:06:48.995Z,76.88
2022-12-28T06:09:15.867Z,76.73
2022-12-28T06:11:43.075Z,77.16
2022-12-28T06:14:09.743Z,77.25
2022-12-28T06:16:41.802Z,77.60
2022-12-28T06:19:14.774Z,77.48
2022-12-28T06:21:41.602Z,78.12
2022-12-28T06:24:09.233Z,76.93
2022-12-28T06:26:37.782Z,77.13
2022-12-28T06:29:04.835Z,77.19
2022-12-28T06:31:34.842Z,77.22
2022-12-28T06:34:03.496Z,77.41
2022-12-28T06:36:41.509Z,77.73
2022-12-28T06:39:10.667Z,77.50
2022-12-28T06:41:38.047Z,77.63
2022-12-28T06:44:09.618Z,77.49
2022-12-28T06:46:36.526Z,77.71
2022-12-28T06:49:03.318Z,77.93
2022-12-28T06:51:36.408Z,78.09
2022-12-28T06:54:03.277Z,77.90
2022-12-28T06:56:32.409Z,77.72
2022-12-28T06:59:03.311Z,77.71
2022-12-28T07:01:34.115Z,78.01
2022-12-28T07:04:02.673Z,77.92
2022-12-28T07:06:30.564Z,78.02
2022-12-28T07:09:01.982Z,77.96
2022-12-28T07:11:29.144Z,77.77
2022-12-28T07:13:56.283Z,77.90
2022-12-28T07:16:25.413Z,78.05
2022-12-28T07:18:52.085Z,77.84
2022-12-28T07:21:33.786Z,78.33
2022-12-28T07:24:01.002Z,78.00
2022-12-28T07:26:30.332Z,78.39
2022-12-28T07:28:58.947Z,78.49
2022-12-28T07:31:28.337Z,78.45
2022-12-28T07:33:57.938Z,78.61
2022-12-28T07:36:26.187Z,78.54
2022-12-28T07:38:53.030Z,78.51
2022-12-28T07:41:22.983Z,78.61
2022-12-28T07:43:50.477Z,78.89
2022-12-28T07:46:20.129Z,78.70
2022-12-28T07:48:47.195Z,78.39
2022-12-28T07:51:22.313Z,78.58
2022-12-28T07:53:50.950Z,78.54
2022-12-28T07:56:18.830Z,78.61
2022-12-28T08:01:17.557Z,78.84
2022-12-28T08:03:44.576Z,78.94
2022-12-28T08:06:19.767Z,79.08
2022-12-28T08:08:48.321Z,78.64
2022-12-28T08:11:19.002Z,79.07
2022-12-28T08:13:47.565Z,78.87
2022-12-28T08:16:16.076Z,78.91
2022-12-28T08:18:42.929Z,78.87
2022-12-28T08:21:15.179Z,78.81
2022-12-28T08:23:42.485Z,78.75
2022-12-28T08:26:27.174Z,78.98
2022-12-28T08:28:56.553Z,78.75
2022-12-28T08:31:29.443Z,79.18
2022-12-28T08:33:57.301Z,78.91
2022-12-28T08:36:24.065Z,79.11
2022-12-28T08:38:50.904Z,79.13
2022-12-28T08:41:21.099Z,79.24
2022-12-28T08:43:48.268Z,79.11
2022-12-28T08:46:18.234Z,79.06
2022-12-28T08:48:45.861Z,79.02
2022-12-28T08:51:16.725Z,79.23
2022-12-28T08:53:43.309Z,79.23
2022-12-28T08:56:24.404Z,78.97
2022-12-28T08:58:51.183Z,79.19
2022-12-28T09:01:22.035Z,79.17
2022-12-28T09:03:50.676Z,79.21
2022-12-28T09:06:20.219Z,79.18
2022-12-28T09:09:05.054Z,79.07
2022-12-28T09:11:34.476Z,79.20
2022-12-28T09:14:01.950Z,79.12
2022-12-28T09:16:28.721Z,79.21
2022-12-28T09:18:59.779Z,79.16
2022-12-28T09:21:32.213Z,79.12
2022-12-28T09:23:59.195Z,79.33
2022-12-28T09:26:31.243Z,79.32
2022-12-28T09:29:00.402Z,79.17
2022-12-28T09:31:29.408Z,79.31
2022-12-28T09:34:34.865Z,79.55
2022-12-28T09:36:45.705Z,79.31
2022-12-28T09:39:18.899Z,79.33
2022-12-28T09:41:48.567Z,79.38
2022-12-28T09:44:26.964Z,79.45
2022-12-28T09:47:01.284Z,79.28
2022-12-28T09:49:43.238Z,79.32
2022-12-28T09:52:26.850Z,79.41
2022-12-28T09:54:54.524Z,79.40
2022-12-28T09:57:21.969Z,79.33
2022-12-28T09:59:49.183Z,79.48
2022-12-28T10:02:29.916Z,79.34
2022-12-28T10:04:56.650Z,79.29
2022-12-28T10:07:23.173Z,79.70
2022-12-28T10:09:50.004Z,79.42
2022-12-28T10:12:24.492Z,79.24
2022-12-28T10:14:53.244Z,79.58
2022-12-28T10:17:30.191Z,79.55
2022-12-28T10:19:59.139Z,79.43
2022-12-28T10:22:35.556Z,79.56
2022-12-28T10:25:01.915Z,79.47
2022-12-28T10:27:31.992Z,79.30
2022-12-28T10:30:01.407Z,79.29
2022-12-28T10:32:47.845Z,79.38
2022-12-28T10:35:22.990Z,79.53
2022-12-28T10:37:49.441Z,79.84
2022-12-28T10:40:26.715Z,79.36
2022-12-28T10:42:55.731Z,79.84
2022-12-28T10:45:46.012Z,79.03
2022-12-28T10:48:25.933Z,79.27
2022-12-28T10:50:58.588Z,79.09
2022-12-28T10:53:33.416Z,79.04
2022-12-28T10:56:05.568Z,79.18
2022-12-28T10:58:34.189Z,79.52
2022-12-28T11:01:12.840Z,79.07
2022-12-28T11:03:46.179Z,79.19
2022-12-28T11:06:26.358Z,79.24
2022-12-28T11:09:21.695Z,78.57
2022-12-28T11:11:50.194Z,79.43
2022-12-28T11:14:34.417Z,78.92
2022-12-28T11:17:27.130Z,78.87
2022-12-28T11:20:04.837Z,79.04
2022-12-28T11:22:32.603Z,79.38
2022-12-28T11:25:00.625Z,79.51
2022-12-28T11:27:28.040Z,79.66
2022-12-28T11:29:55.409Z,79.48
2022-12-28T11:32:26.145Z,79.49
2022-12-28T11:34:55.485Z,79.53
2022-12-28T11:37:21.938Z,79.81
2022-12-28T11:39:49.939Z,79.58
2022-12-28T11:42:39.535Z,79.45
2022-12-28T11:45:37.028Z,79.55
2022-12-28T11:48:38.907Z,79.38
2022-12-28T11:51:06.101Z,79.88
2022-12-28T11:53:32.338Z,80.03
2022-12-28T11:56:08.870Z,79.71
2022-12-28T11:58:58.570Z,79.90
2022-12-28T12:01:28.424Z,79.93
2022-12-28T12:03:57.886Z,80.00
2022-12-28T12:06:46.969Z,79.44
2022-12-28T12:09:22.539Z,79.44
2022-12-28T12:11:50.576Z,79.91
2022-12-28T12:14:23.204Z,79.94
2022-12-28T12:17:03.286Z,79.63
2022-12-28T12:19:34.950Z,79.95
2022-12-28T12:22:19.539Z,79.62
2022-12-28T12:24:54.285Z,80.09
2022-12-28T12:27:33.743Z,79.97
2022-12-28T12:30:04.833Z,80.09
2022-12-28T12:32:46.499Z,80.00
2022-12-28T12:35:19.839Z,80.00
2022-12-28T12:37:56.481Z,80.12
2022-12-28T12:40:44.513Z,80.07
2022-12-28T12:43:35.890Z,79.78
2022-12-28T12:46:36.447Z,79.87
2022-12-28T12:49:21.342Z,79.91
2022-12-28T12:52:13.593Z,79.60
2022-12-28T12:55:03.256Z,79.43
2022-12-28T12:58:00.786Z,79.57
2022-12-28T13:00:48.620Z,79.56
2022-12-28T13:03:23.125Z,80.07
2022-12-28T13:05:56.429Z,79.86
2022-12-28T13:08:28.693Z,80.13
2022-12-28T13:10:55.994Z,80.23
2022-12-28T13:13:31.023Z,79.95
2022-12-28T13:16:02.952Z,80.13
2022-12-28T13:18:46.230Z,80.00
2022-12-28T13:21:20.323Z,80.09
2022-12-28T13:23:47.026Z,80.15
2022-12-28T13:26:15.534Z,80.19
2022-12-28T13:28:53.803Z,79.91
2022-12-28T13:31:32.184Z,79.83
2022-12-28T13:34:01.836Z,80.11
2022-12-28T13:36:29.139Z,80.03
2022-12-28T13:39:13.623Z,79.74
2022-12-28T13:41:52.709Z,79.87
2022-12-28T13:44:28.307Z,79.67
2022-12-28T13:47:04.331Z,79.83
2022-12-28T13:49:36.100Z,80.14
2022-12-28T13:52:08.989Z,80.01
2022-12-28T13:54:36.973Z,80.06
2022-12-28T13:57:36.645Z,80.15
2022-12-28T13:59:51.891Z,80.02
2022-12-28T14:02:20.890Z,79.98
2022-12-28T14:04:53.004Z,79.65
2022-12-28T14:07:23.643Z,79.87
2022-12-28T14:09:51.227Z,79.80
2022-12-28T14:12:18.757Z,80.02
2022-12-28T14:14:48.068Z,79.86
2022-12-28T14:21:16.512Z,78.56
2022-12-28T14:23:59.542Z,78.99
2022-12-28T14:26:39.929Z,78.44
2022-12-28T14:29:42.367Z,77.92
2022-12-28T14:32:29.263Z,78.03
2022-12-28T14:35:04.418Z,78.59
2022-12-28T14:37:38.896Z,78.31
2022-12-28T14:40:07.200Z,78.62
2022-12-28T14:42:35.254Z,78.92
2022-12-28T14:46:06.629Z,77.89
2022-12-28T14:48:31.781Z,78.33
2022-12-28T14:51:00.516Z,78.84
2022-12-28T14:53:27.575Z,79.06
2022-12-28T14:56:04.412Z,77.96
2022-12-28T14:58:33.432Z,78.64
2022-12-28T15:01:05.968Z,78.25
2022-12-28T15:03:58.355Z,77.16
2022-12-28T15:06:30.345Z,78.01
2022-12-28T15:09:04.885Z,78.54
2022-12-28T15:11:31.478Z,78.47
2022-12-28T15:13:58.081Z,78.32
2022-12-28T15:16:24.758Z,78.24
2022-12-28T15:18:52.940Z,78.28
2022-12-28T15:21:22.226Z,78.04
2022-12-28T15:23:53.282Z,78.16
2022-12-28T15:26:21.217Z,77.84
2022-12-28T15:28:47.685Z,78.00
2022-12-28T15:31:17.989Z,77.46
2022-12-28T15:33:45.681Z,77.69
2022-12-28T15:36:18.445Z,77.24
2022-12-28T15:38:49.250Z,76.52
2022-12-28T15:41:36.100Z,77.56
2022-12-28T15:44:04.025Z,77.37
2022-12-28T15:46:30.744Z,77.44
2022-12-28T15:48:57.973Z,77.47
2022-12-28T15:51:24.670Z,77.32
2022-12-28T15:53:51.141Z,77.24
2022-12-28T15:56:24.883Z,76.05
2022-12-28T15:58:56.050Z,76.20
2022-12-28T16:01:24.237Z,76.99
2022-12-28T16:03:56.811Z,76.06
2022-12-28T16:06:25.418Z,77.02
2022-12-28T16:09:00.158Z,74.41
2022-12-28T16:11:31.028Z,76.41
2022-12-28T16:13:59.931Z,76.31
2022-12-28T16:16:29.111Z,76.53
2022-12-28T16:18:57.537Z,76.59
2022-12-28T16:21:27.318Z,75.83
2022-12-28T16:23:54.391Z,76.20
2022-12-28T16:26:21.985Z,76.12
2022-12-28T16:28:49.447Z,76.02
2022-12-28T16:31:24.393Z,74.15
2022-12-28T16:33:59.190Z,74.77
2022-12-28T16:36:26.878Z,75.99
2022-12-28T16:38:53.975Z,76.16
2022-12-28T16:41:21.540Z,75.92
2022-12-28T16:43:48.980Z,75.94
2022-12-28T16:46:16.126Z,75.90
2022-12-28T16:48:42.911Z,75.79
2022-12-28T16:51:09.665Z,75.66
2022-12-28T16:53:37.030Z,75.52
2022-12-28T16:56:05.366Z,75.07
2022-12-28T16:58:33.055Z,75.67
2022-12-28T17:01:08.609Z,74.67
2022-12-28T17:03:36.189Z,75.67
2022-12-28T17:06:03.129Z,74.68
2022-12-28T17:08:30.103Z,75.39
2022-12-28T17:10:56.651Z,75.17
2022-12-28T17:13:23.393Z,75.13
2022-12-28T17:15:50.235Z,75.28
2022-12-28T17:18:16.945Z,74.84
2022-12-28T17:20:44.965Z,74.87
2022-12-28T17:23:11.936Z,75.04
2022-12-28T17:25:38.653Z,74.76
2022-12-28T17:28:05.239Z,74.50
2022-12-28T17:30:31.876Z,74.26
2022-12-28T17:32:58.499Z,74.03
2022-12-28T17:35:25.088Z,73.34
2022-12-28T17:37:51.744Z,73.90
2022-12-28T17:40:19.629Z,73.75
2022-12-28T17:42:46.249Z,73.65
2022-12-28T17:45:12.746Z,73.27
2022-12-28T17:47:39.603Z,73.42
2022-12-28T17:50:06.874Z,72.74
2022-12-28T17:52:33.462Z,73.17
2022-12-28T17:55:00.220Z,72.97
2022-12-28T17:57:26.861Z,72.92
2022-12-28T17:59:53.489Z,72.90
2022-12-28T18:02:20.389Z,73.04
2022-12-28T18:04:48.146Z,72.78
2022-12-28T18:07:14.689Z,73.28
2022-12-28T18:09:41.321Z,73.41
2022-12-28T18:12:07.990Z,73.70
2022-12-28T18:14:34.588Z,74.15
2022-12-28T18:17:01.174Z,74.32
2022-12-28T18:19:27.793Z,74.53
2022-12-28T18:21:54.339Z,74.66
2022-12-28T18:24:21.208Z,74.93
2022-12-28T18:26:48.169Z,75.17
2022-12-28T18:29:15.050Z,75.38
2022-12-28T18:31:41.689Z,75.53
2022-12-28T18:34:08.361Z,75.21
2022-12-28T18:36:34.952Z,75.52
2022-12-28T18:39:02.084Z,76.03
2022-12-28T18:41:33.737Z,76.10
2022-12-28T18:44:02.773Z,76.09
2022-12-28T18:46:29.805Z,76.25
2022-12-28T18:48:56.691Z,76.30
2022-12-28T18:51:23.366Z,76.32
2022-12-28T18:53:50.911Z,76.63
2022-12-28T18:56:21.667Z,76.26
2022-12-28T18:58:56.073Z,76.80
2022-12-28T19:04:15.858Z,76.89
2022-12-28T19:06:43.644Z,77.12
2022-12-28T19:09:10.664Z,76.95
2022-12-28T19:11:38.474Z,77.25
2022-12-28T19:14:07.549Z,77.42
2022-12-28T19:16:34.882Z,76.93
2022-12-28T19:19:02.116Z,77.57
2022-12-28T19:21:34.664Z,77.29
2022-12-28T19:24:03.929Z,77.74
2022-12-28T19:26:32.522Z,77.68
2022-12-28T19:28:59.199Z,77.85
2022-12-28T19:31:26.453Z,77.88
2022-12-28T19:33:53.675Z,77.89
2022-12-28T19:36:20.253Z,78.13
2022-12-28T19:38:47.322Z,78.11
2022-12-28T19:41:15.584Z,78.13
2022-12-28T19:43:43.697Z,78.16
2022-12-28T19:46:18.924Z,78.20
2022-12-28T19:48:45.898Z,78.50
2022-12-28T19:51:13.329Z,78.54
2022-12-28T19:53:39.897Z,78.28
2022-12-28T19:56:09.326Z,78.51
2022-12-28T19:58:39.015Z,78.36
2022-12-28T20:01:08.329Z,78.36
2022-12-28T20:03:35.470Z,78.55
2022-12-28T20:06:07.422Z,78.41
2022-12-28T20:11:03.289Z,78.58
2022-12-28T20:13:33.791Z,78.07
2022-12-28T20:16:00.361Z,78.85
2022-12-28T20:18:26.943Z,78.61
2022-12-28T20:21:18.695Z,78.74
2022-12-28T20:23:39.893Z,78.89
2022-12-28T20:26:06.375Z,78.95
2022-12-28T20:28:34.458Z,78.93
2022-12-28T20:31:08.381Z,78.86
2022-12-28T20:33:36.150Z,78.89
2022-12-28T20:36:06.012Z,78.70
2022-12-28T20:38:32.855Z,79.22
2022-12-28T20:41:10.859Z,78.94
2022-12-28T20:43:37.449Z,79.18
2022-12-28T20:46:10.475Z,79.08
2022-12-28T20:48:36.851Z,78.45
2022-12-28T20:51:03.320Z,79.08
2022-12-28T20:53:29.782Z,79.47
2022-12-28T20:56:06.387Z,79.05
2022-12-28T20:58:33.055Z,79.51
2022-12-28T21:01:12.124Z,79.35
2022-12-28T21:03:39.035Z,79.75
2022-12-28T21:06:05.921Z,79.75
2022-12-28T21:08:32.907Z,79.88
2022-12-28T21:11:00.287Z,79.78
2022-12-28T21:13:27.168Z,80.06
2022-12-28T21:15:54.231Z,79.91
2022-12-28T21:18:21.250Z,80.18
2022-12-28T21:20:57.352Z,79.96
2022-12-28T21:23:23.879Z,80.22
2022-12-28T21:25:50.429Z,80.18
2022-12-28T21:28:17.185Z,80.12
2022-12-28T21:30:43.797Z,80.27
2022-12-28T21:33:10.355Z,80.74
2022-12-28T21:35:36.936Z,80.42
2022-12-28T21:38:04.719Z,80.28
2022-12-28T21:40:31.309Z,80.21
2022-12-28T21:42:57.844Z,80.38
2022-12-28T21:45:24.420Z,80.44
2022-12-28T21:47:50.904Z,80.36
2022-12-28T21:50:17.504Z,80.31
2022-12-28T21:52:44.093Z,80.35
2022-12-28T21:55:29.389Z,80.34
2022-12-28T21:57:55.917Z,80.28
2022-12-28T22:00:40.999Z,80.24
2022-12-28T22:03:26.247Z,80.54
2022-12-28T22:06:04.878Z,80.59
2022-12-28T22:08:52.170Z,80.39
2022-12-28T22:11:37.954Z,80.19
2022-12-28T22:14:06.302Z,80.43
2022-12-28T22:16:34.872Z,80.46
2022-12-28T22:19:03.508Z,80.35
2022-12-28T22:21:30.657Z,80.42
2022-12-28T22:23:57.192Z,80.23
2022-12-28T22:26:23.682Z,80.38
2022-12-28T22:28:50.227Z,80.03
2022-12-28T22:31:16.788Z,80.34
2022-12-28T22:33:43.484Z,80.19
2022-12-28T22:36:15.966Z,79.84
2022-12-28T22:38:42.776Z,80.26
2022-12-28T22:41:09.938Z,80.22
2022-12-28T22:43:36.460Z,79.94
2022-12-28T22:46:10.772Z,79.67
2022-12-28T22:48:37.869Z,80.16
2022-12-28T22:51:07.319Z,79.98
2022-12-28T22:53:35.321Z,79.85
2022-12-28T22:56:04.320Z,79.90
2022-12-28T22:58:31.231Z,79.88
2022-12-28T23:01:12.214Z,79.09
2022-12-28T23:03:44.129Z,79.21
2022-12-28T23:06:13.222Z,79.73
2022-12-28T23:08:40.209Z,79.74
2022-12-28T23:11:29.918Z,79.54
2022-12-28T23:14:17.734Z,79.54
2022-12-28T23:16:44.573Z,79.19
2022-12-28T23:19:30.462Z,79.48
2022-12-28T23:22:16.376Z,79.66
2022-12-28T23:25:01.812Z,79.35
2022-12-28T23:27:40.067Z,78.78
2022-12-28T23:30:10.384Z,78.79
2022-12-28T23:32:36.963Z,79.29
2022-12-28T23:35:04.011Z,79.54
2022-12-28T23:37:31.042Z,79.36
2022-12-28T23:39:57.487Z,79.69
2022-12-28T23:42:24.013Z,79.43
2022-12-28T23:44:50.513Z,79.63
2022-12-28T23:47:17.608Z,79.68
2022-12-28T23:49:44.139Z,79.42
2022-12-28T23:52:11.357Z,79.41
2022-12-28T23:54:38.109Z,79.51
2022-12-28T23:57:05.004Z,79.76
2022-12-28T23:59:32.792Z,79.75
